sensor_id;sensor_type;location;lat;lon;timestamp;P1;durP1;ratioP1;P2;durP2;ratioP2
67544;SDS011;54380;47.770;11.150;2023-02-05T00:00:38;7.80;;;1.17;;
67544;SDS011;54380;47.770;11.150;2023-02-05T00:03:05;6.25;;;0.90;;
67544;SDS011;54380;47.770;11.150;2023-02-05T00:05:33;6.30;;;1.02;;
67544;SDS011;54380;47.770;11.150;2023-02-05T00:08:00;6.05;;;0.93;;
67544;SDS011;54380;47.770;11.150;2023-02-05T00:10:27;7.18;;;1.13;;
67544;SDS011;54380;47.770;11.150;2023-02-05T00:12:54;8.80;;;1.45;;
67544;SDS011;54380;47.770;11.150;2023-02-05T00:15:21;6.38;;;0.90;;
67544;SDS011;54380;47.770;11.150;2023-02-05T00:17:47;5.32;;;1.00;;
67544;SDS011;54380;47.770;11.150;2023-02-05T00:20:14;4.88;;;0.70;;
67544;SDS011;54380;47.770;11.150;2023-02-05T00:22:42;6.47;;;0.90;;
67544;SDS011;54380;47.770;11.150;2023-02-05T00:25:09;6.70;;;0.93;;
67544;SDS011;54380;47.770;11.150;2023-02-05T00:27:36;5.65;;;0.95;;
67544;SDS011;54380;47.770;11.150;2023-02-05T00:30:03;6.00;;;1.02;;
67544;SDS011;54380;47.770;11.150;2023-02-05T00:32:30;5.93;;;0.93;;
67544;SDS011;54380;47.770;11.150;2023-02-05T00:34:57;7.78;;;1.00;;
67544;SDS011;54380;47.770;11.150;2023-02-05T00:37:23;6.07;;;1.15;;
67544;SDS011;54380;47.770;11.150;2023-02-05T00:39:51;8.02;;;1.27;;
67544;SDS011;54380;47.770;11.150;2023-02-05T00:42:18;4.47;;;0.68;;
67544;SDS011;54380;47.770;11.150;2023-02-05T00:44:46;6.45;;;1.02;;
67544;SDS011;54380;47.770;11.150;2023-02-05T00:47:13;8.80;;;1.55;;
67544;SDS011;54380;47.770;11.150;2023-02-05T00:49:39;8.45;;;1.25;;
67544;SDS011;54380;47.770;11.150;2023-02-05T00:52:06;7.10;;;1.00;;
67544;SDS011;54380;47.770;11.150;2023-02-05T00:54:33;6.03;;;0.77;;
67544;SDS011;54380;47.770;11.150;2023-02-05T00:57:01;6.88;;;1.13;;
67544;SDS011;54380;47.770;11.150;2023-02-05T00:59:27;6.85;;;1.20;;
67544;SDS011;54380;47.770;11.150;2023-02-05T01:01:54;6.53;;;1.05;;
67544;SDS011;54380;47.770;11.150;2023-02-05T01:04:22;5.38;;;0.82;;
67544;SDS011;54380;47.770;11.150;2023-02-05T01:06:58;5.68;;;0.95;;
67544;SDS011;54380;47.770;11.150;2023-02-05T01:09:25;5.32;;;0.80;;
67544;SDS011;54380;47.770;11.150;2023-02-05T01:11:53;4.00;;;0.70;;
67544;SDS011;54380;47.770;11.150;2023-02-05T01:14:21;4.95;;;0.95;;
67544;SDS011;54380;47.770;11.150;2023-02-05T01:16:48;5.82;;;0.85;;
67544;SDS011;54380;47.770;11.150;2023-02-05T01:19:15;6.43;;;0.90;;
67544;SDS011;54380;47.770;11.150;2023-02-05T01:21:42;6.35;;;1.10;;
67544;SDS011;54380;47.770;11.150;2023-02-05T01:24:08;5.47;;;0.80;;
67544;SDS011;54380;47.770;11.150;2023-02-05T01:26:35;6.15;;;0.70;;
67544;SDS011;54380;47.770;11.150;2023-02-05T01:29:02;6.07;;;1.00;;
67544;SDS011;54380;47.770;11.150;2023-02-05T01:31:30;7.20;;;0.90;;
67544;SDS011;54380;47.770;11.150;2023-02-05T01:36:25;6.65;;;0.98;;
67544;SDS011;54380;47.770;11.150;2023-02-05T01:38:52;9.88;;;1.17;;
67544;SDS011;54380;47.770;11.150;2023-02-05T01:41:19;8.23;;;1.42;;
67544;SDS011;54380;47.770;11.150;2023-02-05T01:44:03;8.13;;;1.60;;
67544;SDS011;54380;47.770;11.150;2023-02-05T01:46:32;7.75;;;1.38;;
67544;SDS011;54380;47.770;11.150;2023-02-05T01:49:00;8.85;;;1.38;;
67544;SDS011;54380;47.770;11.150;2023-02-05T01:51:29;6.65;;;1.23;;
67544;SDS011;54380;47.770;11.150;2023-02-05T01:53:58;4.72;;;0.80;;
67544;SDS011;54380;47.770;11.150;2023-02-05T01:56:27;6.63;;;1.10;;
67544;SDS011;54380;47.770;11.150;2023-02-05T01:58:57;4.97;;;0.85;;
67544;SDS011;54380;47.770;11.150;2023-02-05T02:01:28;7.22;;;1.13;;
67544;SDS011;54380;47.770;11.150;2023-02-05T02:03:59;6.82;;;1.10;;
67544;SDS011;54380;47.770;11.150;2023-02-05T02:06:31;6.20;;;1.10;;
67544;SDS011;54380;47.770;11.150;2023-02-05T02:08:58;8.75;;;0.90;;
67544;SDS011;54380;47.770;11.150;2023-02-05T02:11:26;6.20;;;1.10;;
67544;SDS011;54380;47.770;11.150;2023-02-05T02:13:55;6.10;;;0.90;;
67544;SDS011;54380;47.770;11.150;2023-02-05T02:16:24;6.05;;;1.25;;
67544;SDS011;54380;47.770;11.150;2023-02-05T02:18:53;7.45;;;1.23;;
67544;SDS011;54380;47.770;11.150;2023-02-05T02:21:35;6.30;;;0.93;;
67544;SDS011;54380;47.770;11.150;2023-02-05T02:27:39;6.65;;;0.98;;
67544;SDS011;54380;47.770;11.150;2023-02-05T02:30:12;6.85;;;1.20;;
67544;SDS011;54380;47.770;11.150;2023-02-05T02:32:45;8.52;;;1.35;;
67544;SDS011;54380;47.770;11.150;2023-02-05T02:35:22;6.03;;;0.80;;
67544;SDS011;54380;47.770;11.150;2023-02-05T02:37:55;6.40;;;0.90;;
67544;SDS011;54380;47.770;11.150;2023-02-05T02:40:28;7.55;;;1.10;;
67544;SDS011;54380;47.770;11.150;2023-02-05T02:43:04;5.50;;;0.77;;
67544;SDS011;54380;47.770;11.150;2023-02-05T02:45:36;8.15;;;1.17;;
67544;SDS011;54380;47.770;11.150;2023-02-05T02:48:08;9.43;;;1.20;;
67544;SDS011;54380;47.770;11.150;2023-02-05T02:50:39;5.97;;;0.93;;
67544;SDS011;54380;47.770;11.150;2023-02-05T02:53:11;6.10;;;1.02;;
67544;SDS011;54380;47.770;11.150;2023-02-05T02:55:42;7.80;;;1.05;;
67544;SDS011;54380;47.770;11.150;2023-02-05T02:58:12;7.78;;;1.42;;
67544;SDS011;54380;47.770;11.150;2023-02-05T03:00:43;8.48;;;1.55;;
67544;SDS011;54380;47.770;11.150;2023-02-05T03:03:12;6.50;;;1.10;;
67544;SDS011;54380;47.770;11.150;2023-02-05T03:05:42;7.90;;;1.65;;
67544;SDS011;54380;47.770;11.150;2023-02-05T03:08:12;7.82;;;1.35;;
67544;SDS011;54380;47.770;11.150;2023-02-05T03:10:44;9.63;;;1.30;;
67544;SDS011;54380;47.770;11.150;2023-02-05T03:13:15;6.25;;;1.13;;
67544;SDS011;54380;47.770;11.150;2023-02-05T03:15:48;7.32;;;1.15;;
67544;SDS011;54380;47.770;11.150;2023-02-05T03:18:15;6.18;;;1.00;;
67544;SDS011;54380;47.770;11.150;2023-02-05T03:20:48;6.15;;;1.00;;
67544;SDS011;54380;47.770;11.150;2023-02-05T03:23:17;7.28;;;1.10;;
67544;SDS011;54380;47.770;11.150;2023-02-05T03:25:44;6.45;;;1.10;;
67544;SDS011;54380;47.770;11.150;2023-02-05T03:28:12;8.05;;;1.13;;
67544;SDS011;54380;47.770;11.150;2023-02-05T03:30:45;7.38;;;1.38;;
67544;SDS011;54380;47.770;11.150;2023-02-05T03:33:25;10.02;;;1.88;;
67544;SDS011;54380;47.770;11.150;2023-02-05T03:36:07;8.45;;;1.70;;
67544;SDS011;54380;47.770;11.150;2023-02-05T03:38:48;7.38;;;1.30;;
67544;SDS011;54380;47.770;11.150;2023-02-05T03:41:27;6.13;;;1.40;;
67544;SDS011;54380;47.770;11.150;2023-02-05T03:44:38;10.00;;;1.52;;
67544;SDS011;54380;47.770;11.150;2023-02-05T03:47:34;6.70;;;1.23;;
67544;SDS011;54380;47.770;11.150;2023-02-05T03:50:11;6.80;;;1.35;;
67544;SDS011;54380;47.770;11.150;2023-02-05T03:52:48;8.40;;;1.40;;
67544;SDS011;54380;47.770;11.150;2023-02-05T03:55:17;9.23;;;1.40;;
67544;SDS011;54380;47.770;11.150;2023-02-05T03:57:49;8.82;;;1.27;;
67544;SDS011;54380;47.770;11.150;2023-02-05T04:00:22;8.00;;;1.52;;
67544;SDS011;54380;47.770;11.150;2023-02-05T04:02:53;7.10;;;1.05;;
67544;SDS011;54380;47.770;11.150;2023-02-05T04:05:24;9.82;;;1.25;;
67544;SDS011;54380;47.770;11.150;2023-02-05T04:07:53;7.03;;;1.13;;
67544;SDS011;54380;47.770;11.150;2023-02-05T04:10:24;7.57;;;1.52;;
67544;SDS011;54380;47.770;11.150;2023-02-05T04:12:51;9.23;;;1.50;;
67544;SDS011;54380;47.770;11.150;2023-02-05T04:15:18;8.70;;;1.60;;
67544;SDS011;54380;47.770;11.150;2023-02-05T04:17:49;8.82;;;1.73;;
67544;SDS011;54380;47.770;11.150;2023-02-05T04:20:18;7.43;;;1.33;;
67544;SDS011;54380;47.770;11.150;2023-02-05T04:22:45;6.70;;;1.10;;
67544;SDS011;54380;47.770;11.150;2023-02-05T04:25:12;7.97;;;1.65;;
67544;SDS011;54380;47.770;11.150;2023-02-05T04:27:39;8.10;;;1.48;;
67544;SDS011;54380;47.770;11.150;2023-02-05T04:30:06;9.10;;;1.58;;
67544;SDS011;54380;47.770;11.150;2023-02-05T04:32:37;6.80;;;1.00;;
67544;SDS011;54380;47.770;11.150;2023-02-05T04:35:04;7.13;;;1.20;;
67544;SDS011;54380;47.770;11.150;2023-02-05T04:37:33;7.65;;;1.40;;
67544;SDS011;54380;47.770;11.150;2023-02-05T04:39:59;6.13;;;1.20;;
67544;SDS011;54380;47.770;11.150;2023-02-05T04:42:26;9.20;;;1.80;;
67544;SDS011;54380;47.770;11.150;2023-02-05T04:44:53;6.03;;;0.90;;
67544;SDS011;54380;47.770;11.150;2023-02-05T04:47:19;7.95;;;1.50;;
67544;SDS011;54380;47.770;11.150;2023-02-05T04:49:46;10.93;;;1.95;;
67544;SDS011;54380;47.770;11.150;2023-02-05T04:52:13;7.45;;;1.23;;
67544;SDS011;54380;47.770;11.150;2023-02-05T04:54:42;6.75;;;1.58;;
67544;SDS011;54380;47.770;11.150;2023-02-05T04:57:09;8.07;;;1.52;;
67544;SDS011;54380;47.770;11.150;2023-02-05T04:59:35;8.35;;;1.40;;
67544;SDS011;54380;47.770;11.150;2023-02-05T05:02:02;7.45;;;1.40;;
67544;SDS011;54380;47.770;11.150;2023-02-05T05:04:29;8.48;;;1.95;;
67544;SDS011;54380;47.770;11.150;2023-02-05T05:06:56;9.80;;;1.73;;
67544;SDS011;54380;47.770;11.150;2023-02-05T05:09:23;7.35;;;1.20;;
67544;SDS011;54380;47.770;11.150;2023-02-05T05:11:52;8.05;;;1.40;;
67544;SDS011;54380;47.770;11.150;2023-02-05T05:14:19;15.73;;;3.85;;
67544;SDS011;54380;47.770;11.150;2023-02-05T05:16:46;10.98;;;1.90;;
67544;SDS011;54380;47.770;11.150;2023-02-05T05:19:14;16.90;;;4.05;;
67544;SDS011;54380;47.770;11.150;2023-02-05T05:21:42;16.73;;;3.35;;
67544;SDS011;54380;47.770;11.150;2023-02-05T05:24:08;14.13;;;4.20;;
67544;SDS011;54380;47.770;11.150;2023-02-05T05:26:35;13.77;;;2.83;;
67544;SDS011;54380;47.770;11.150;2023-02-05T05:29:05;19.20;;;3.70;;
67544;SDS011;54380;47.770;11.150;2023-02-05T05:31:32;13.50;;;2.72;;
67544;SDS011;54380;47.770;11.150;2023-02-05T05:34:00;13.20;;;2.67;;
67544;SDS011;54380;47.770;11.150;2023-02-05T05:36:27;10.63;;;2.10;;
67544;SDS011;54380;47.770;11.150;2023-02-05T05:38:53;9.07;;;1.95;;
67544;SDS011;54380;47.770;11.150;2023-02-05T05:41:21;12.65;;;2.40;;
67544;SDS011;54380;47.770;11.150;2023-02-05T05:44:09;11.20;;;2.55;;
67544;SDS011;54380;47.770;11.150;2023-02-05T05:46:35;10.60;;;2.20;;
67544;SDS011;54380;47.770;11.150;2023-02-05T05:49:02;14.95;;;2.30;;
67544;SDS011;54380;47.770;11.150;2023-02-05T05:51:30;9.00;;;2.00;;
67544;SDS011;54380;47.770;11.150;2023-02-05T05:53:58;10.82;;;2.35;;
67544;SDS011;54380;47.770;11.150;2023-02-05T05:56:25;13.00;;;2.38;;
67544;SDS011;54380;47.770;11.150;2023-02-05T05:58:52;10.18;;;2.22;;
67544;SDS011;54380;47.770;11.150;2023-02-05T06:01:20;10.07;;;2.05;;
67544;SDS011;54380;47.770;11.150;2023-02-05T06:03:48;10.02;;;2.45;;
67544;SDS011;54380;47.770;11.150;2023-02-05T06:06:15;12.90;;;2.55;;
67544;SDS011;54380;47.770;11.150;2023-02-05T06:08:42;9.23;;;1.73;;
67544;SDS011;54380;47.770;11.150;2023-02-05T06:11:09;8.73;;;1.65;;
67544;SDS011;54380;47.770;11.150;2023-02-05T06:13:36;10.20;;;2.30;;
67544;SDS011;54380;47.770;11.150;2023-02-05T06:16:03;11.00;;;2.05;;
67544;SDS011;54380;47.770;11.150;2023-02-05T06:18:32;10.25;;;2.45;;
67544;SDS011;54380;47.770;11.150;2023-02-05T06:20:59;11.80;;;2.22;;
67544;SDS011;54380;47.770;11.150;2023-02-05T06:23:27;8.18;;;1.70;;
67544;SDS011;54380;47.770;11.150;2023-02-05T06:25:54;11.73;;;2.08;;
67544;SDS011;54380;47.770;11.150;2023-02-05T06:28:20;8.60;;;1.85;;
67544;SDS011;54380;47.770;11.150;2023-02-05T06:30:47;7.95;;;1.48;;
67544;SDS011;54380;47.770;11.150;2023-02-05T06:33:14;7.45;;;1.35;;
67544;SDS011;54380;47.770;11.150;2023-02-05T06:35:42;7.43;;;1.35;;
67544;SDS011;54380;47.770;11.150;2023-02-05T06:38:09;11.00;;;2.55;;
67544;SDS011;54380;47.770;11.150;2023-02-05T06:40:36;9.02;;;2.05;;
67544;SDS011;54380;47.770;11.150;2023-02-05T06:43:03;8.52;;;1.70;;
67544;SDS011;54380;47.770;11.150;2023-02-05T06:45:29;8.45;;;1.80;;
67544;SDS011;54380;47.770;11.150;2023-02-05T06:47:56;8.80;;;2.22;;
67544;SDS011;54380;47.770;11.150;2023-02-05T06:50:23;8.85;;;2.05;;
67544;SDS011;54380;47.770;11.150;2023-02-05T06:52:52;7.75;;;1.52;;
67544;SDS011;54380;47.770;11.150;2023-02-05T06:55:19;7.63;;;1.45;;
67544;SDS011;54380;47.770;11.150;2023-02-05T06:57:46;11.43;;;2.45;;
67544;SDS011;54380;47.770;11.150;2023-02-05T07:00:13;11.65;;;2.50;;
67544;SDS011;54380;47.770;11.150;2023-02-05T07:02:41;17.23;;;4.90;;
67544;SDS011;54380;47.770;11.150;2023-02-05T07:05:08;16.17;;;3.83;;
67544;SDS011;54380;47.770;11.150;2023-02-05T07:07:35;17.40;;;5.07;;
67544;SDS011;54380;47.770;11.150;2023-02-05T07:10:04;11.80;;;2.83;;
67544;SDS011;54380;47.770;11.150;2023-02-05T07:12:31;10.85;;;2.50;;
67544;SDS011;54380;47.770;11.150;2023-02-05T07:14:58;9.98;;;2.35;;
67544;SDS011;54380;47.770;11.150;2023-02-05T07:17:24;16.38;;;5.05;;
67544;SDS011;54380;47.770;11.150;2023-02-05T07:19:51;14.68;;;3.85;;
67544;SDS011;54380;47.770;11.150;2023-02-05T07:22:18;10.35;;;2.63;;
67544;SDS011;54380;47.770;11.150;2023-02-05T07:24:45;13.95;;;3.85;;
67544;SDS011;54380;47.770;11.150;2023-02-05T07:27:13;13.55;;;4.00;;
67544;SDS011;54380;47.770;11.150;2023-02-05T07:29:40;15.20;;;4.80;;
67544;SDS011;54380;47.770;11.150;2023-02-05T07:32:07;11.55;;;2.80;;
67544;SDS011;54380;47.770;11.150;2023-02-05T07:34:33;10.88;;;2.85;;
67544;SDS011;54380;47.770;11.150;2023-02-05T07:37:00;9.77;;;2.25;;
67544;SDS011;54380;47.770;11.150;2023-02-05T07:39:27;12.38;;;3.45;;
67544;SDS011;54380;47.770;11.150;2023-02-05T07:41:54;12.95;;;3.90;;
67544;SDS011;54380;47.770;11.150;2023-02-05T07:44:30;15.65;;;4.35;;
67544;SDS011;54380;47.770;11.150;2023-02-05T07:46:57;15.32;;;5.72;;
67544;SDS011;54380;47.770;11.150;2023-02-05T07:49:23;16.45;;;4.97;;
67544;SDS011;54380;47.770;11.150;2023-02-05T07:51:50;21.23;;;6.55;;
67544;SDS011;54380;47.770;11.150;2023-02-05T07:54:17;18.23;;;6.68;;
67544;SDS011;54380;47.770;11.150;2023-02-05T07:56:44;14.68;;;3.58;;
67544;SDS011;54380;47.770;11.150;2023-02-05T07:59:10;18.42;;;6.07;;
67544;SDS011;54380;47.770;11.150;2023-02-05T08:01:38;20.38;;;5.90;;
67544;SDS011;54380;47.770;11.150;2023-02-05T08:04:05;18.52;;;5.50;;
67544;SDS011;54380;47.770;11.150;2023-02-05T08:06:32;18.20;;;5.40;;
67544;SDS011;54380;47.770;11.150;2023-02-05T08:09:00;18.27;;;6.13;;
67544;SDS011;54380;47.770;11.150;2023-02-05T08:11:26;15.68;;;5.22;;
67544;SDS011;54380;47.770;11.150;2023-02-05T08:13:53;16.98;;;5.45;;
67544;SDS011;54380;47.770;11.150;2023-02-05T08:16:20;12.73;;;3.90;;
67544;SDS011;54380;47.770;11.150;2023-02-05T08:18:48;13.70;;;4.47;;
67544;SDS011;54380;47.770;11.150;2023-02-05T08:21:15;14.50;;;4.43;;
67544;SDS011;54380;47.770;11.150;2023-02-05T08:23:43;14.20;;;4.40;;
67544;SDS011;54380;47.770;11.150;2023-02-05T08:26:09;12.25;;;3.25;;
67544;SDS011;54380;47.770;11.150;2023-02-05T08:28:37;12.13;;;3.17;;
67544;SDS011;54380;47.770;11.150;2023-02-05T08:31:07;15.00;;;4.72;;
67544;SDS011;54380;47.770;11.150;2023-02-05T08:33:35;11.95;;;2.60;;
67544;SDS011;54380;47.770;11.150;2023-02-05T08:36:03;14.63;;;4.03;;
67544;SDS011;54380;47.770;11.150;2023-02-05T08:38:32;12.68;;;3.50;;
67544;SDS011;54380;47.770;11.150;2023-02-05T08:41:02;12.80;;;3.10;;
67544;SDS011;54380;47.770;11.150;2023-02-05T08:43:29;14.05;;;3.70;;
67544;SDS011;54380;47.770;11.150;2023-02-05T08:45:56;13.60;;;3.92;;
67544;SDS011;54380;47.770;11.150;2023-02-05T08:48:22;15.45;;;4.80;;
67544;SDS011;54380;47.770;11.150;2023-02-05T08:50:49;16.15;;;4.72;;
67544;SDS011;54380;47.770;11.150;2023-02-05T08:53:18;12.13;;;3.42;;
67544;SDS011;54380;47.770;11.150;2023-02-05T08:55:45;14.93;;;3.42;;
67544;SDS011;54380;47.770;11.150;2023-02-05T08:58:20;13.88;;;3.47;;
67544;SDS011;54380;47.770;11.150;2023-02-05T09:00:47;13.48;;;2.60;;
67544;SDS011;54380;47.770;11.150;2023-02-05T09:03:14;14.50;;;3.20;;
67544;SDS011;54380;47.770;11.150;2023-02-05T09:05:40;13.15;;;3.25;;
67544;SDS011;54380;47.770;11.150;2023-02-05T09:08:07;11.18;;;2.78;;
67544;SDS011;54380;47.770;11.150;2023-02-05T09:10:35;12.35;;;3.03;;
67544;SDS011;54380;47.770;11.150;2023-02-05T09:13:02;10.50;;;2.55;;
67544;SDS011;54380;47.770;11.150;2023-02-05T09:15:29;12.65;;;3.28;;
67544;SDS011;54380;47.770;11.150;2023-02-05T09:17:55;15.18;;;4.05;;
67544;SDS011;54380;47.770;11.150;2023-02-05T09:20:22;11.27;;;2.53;;
67544;SDS011;54380;47.770;11.150;2023-02-05T09:22:49;14.57;;;3.25;;
67544;SDS011;54380;47.770;11.150;2023-02-05T09:25:19;7.97;;;1.25;;
67544;SDS011;54380;47.770;11.150;2023-02-05T09:27:47;7.88;;;1.83;;
67544;SDS011;54380;47.770;11.150;2023-02-05T09:30:14;8.90;;;1.85;;
67544;SDS011;54380;47.770;11.150;2023-02-05T09:32:40;8.18;;;1.33;;
67544;SDS011;54380;47.770;11.150;2023-02-05T09:35:07;9.15;;;1.25;;
67544;SDS011;54380;47.770;11.150;2023-02-05T09:37:34;7.95;;;1.25;;
67544;SDS011;54380;47.770;11.150;2023-02-05T09:40:00;11.70;;;1.67;;
67544;SDS011;54380;47.770;11.150;2023-02-05T09:42:50;7.38;;;1.02;;
67544;SDS011;54380;47.770;11.150;2023-02-05T09:45:31;7.53;;;1.00;;
67544;SDS011;54380;47.770;11.150;2023-02-05T09:48:08;7.78;;;1.13;;
67544;SDS011;54380;47.770;11.150;2023-02-05T09:50:56;8.43;;;1.20;;
67544;SDS011;54380;47.770;11.150;2023-02-05T09:53:23;8.98;;;1.45;;
67544;SDS011;54380;47.770;11.150;2023-02-05T09:55:54;7.97;;;1.15;;
67544;SDS011;54380;47.770;11.150;2023-02-05T09:58:24;10.60;;;1.20;;
67544;SDS011;54380;47.770;11.150;2023-02-05T10:00:58;5.60;;;0.75;;
67544;SDS011;54380;47.770;11.150;2023-02-05T10:03:28;12.38;;;1.33;;
67544;SDS011;54380;47.770;11.150;2023-02-05T10:06:09;9.65;;;0.90;;
67544;SDS011;54380;47.770;11.150;2023-02-05T10:08:47;13.55;;;1.55;;
67544;SDS011;54380;47.770;11.150;2023-02-05T10:13:56;6.80;;;0.90;;
67544;SDS011;54380;47.770;11.150;2023-02-05T10:16:37;7.40;;;0.82;;
67544;SDS011;54380;47.770;11.150;2023-02-05T10:19:20;9.55;;;1.10;;
67544;SDS011;54380;47.770;11.150;2023-02-05T10:22:16;8.20;;;0.90;;
67544;SDS011;54380;47.770;11.150;2023-02-05T10:25:04;8.50;;;1.02;;
67544;SDS011;54380;47.770;11.150;2023-02-05T10:27:45;8.07;;;1.50;;
67544;SDS011;54380;47.770;11.150;2023-02-05T10:30:23;7.95;;;0.68;;
67544;SDS011;54380;47.770;11.150;2023-02-05T10:32:56;12.32;;;1.23;;
67544;SDS011;54380;47.770;11.150;2023-02-05T10:35:25;9.30;;;0.80;;
67544;SDS011;54380;47.770;11.150;2023-02-05T10:38:04;9.65;;;0.98;;
67544;SDS011;54380;47.770;11.150;2023-02-05T10:40:39;8.85;;;1.00;;
67544;SDS011;54380;47.770;11.150;2023-02-05T10:43:15;8.30;;;1.00;;
67544;SDS011;54380;47.770;11.150;2023-02-05T10:45:46;8.07;;;0.73;;
67544;SDS011;54380;47.770;11.150;2023-02-05T10:48:20;7.68;;;0.70;;
67544;SDS011;54380;47.770;11.150;2023-02-05T10:50:54;14.20;;;1.17;;
67544;SDS011;54380;47.770;11.150;2023-02-05T10:53:25;8.35;;;0.88;;
67544;SDS011;54380;47.770;11.150;2023-02-05T10:55:53;8.88;;;1.13;;
67544;SDS011;54380;47.770;11.150;2023-02-05T10:58:27;4.60;;;0.70;;
67544;SDS011;54380;47.770;11.150;2023-02-05T11:01:12;6.63;;;0.90;;
67544;SDS011;54380;47.770;11.150;2023-02-05T11:03:44;9.48;;;1.02;;
67544;SDS011;54380;47.770;11.150;2023-02-05T11:06:19;7.53;;;0.70;;
67544;SDS011;54380;47.770;11.150;2023-02-05T11:08:48;13.45;;;1.50;;
67544;SDS011;54380;47.770;11.150;2023-02-05T11:11:20;11.90;;;1.02;;
67544;SDS011;54380;47.770;11.150;2023-02-05T11:13:51;5.20;;;0.65;;
67544;SDS011;54380;47.770;11.150;2023-02-05T11:16:21;6.80;;;0.65;;
67544;SDS011;54380;47.770;11.150;2023-02-05T11:18:55;5.53;;;0.60;;
67544;SDS011;54380;47.770;11.150;2023-02-05T11:21:27;7.50;;;0.70;;
67544;SDS011;54380;47.770;11.150;2023-02-05T11:24:19;6.25;;;0.50;;
67544;SDS011;54380;47.770;11.150;2023-02-05T11:26:48;6.07;;;0.52;;
67544;SDS011;54380;47.770;11.150;2023-02-05T11:29:19;7.25;;;0.50;;
67544;SDS011;54380;47.770;11.150;2023-02-05T11:31:47;7.93;;;1.13;;
67544;SDS011;54380;47.770;11.150;2023-02-05T11:34:15;7.97;;;0.63;;
67544;SDS011;54380;47.770;11.150;2023-02-05T11:36:49;7.85;;;0.90;;
67544;SDS011;54380;47.770;11.150;2023-02-05T11:39:22;8.13;;;1.15;;
67544;SDS011;54380;47.770;11.150;2023-02-05T11:42:05;6.80;;;0.60;;
67544;SDS011;54380;47.770;11.150;2023-02-05T11:44:35;6.30;;;0.68;;
67544;SDS011;54380;47.770;11.150;2023-02-05T11:47:15;8.65;;;0.90;;
67544;SDS011;54380;47.770;11.150;2023-02-05T11:49:48;13.40;;;1.52;;
67544;SDS011;54380;47.770;11.150;2023-02-05T11:52:17;9.85;;;1.20;;
67544;SDS011;54380;47.770;11.150;2023-02-05T11:54:51;6.18;;;0.60;;
67544;SDS011;54380;47.770;11.150;2023-02-05T11:57:31;9.60;;;0.80;;
67544;SDS011;54380;47.770;11.150;2023-02-05T12:00:13;4.38;;;0.50;;
67544;SDS011;54380;47.770;11.150;2023-02-05T12:02:46;9.43;;;0.57;;
67544;SDS011;54380;47.770;11.150;2023-02-05T12:05:20;5.05;;;0.68;;
67544;SDS011;54380;47.770;11.150;2023-02-05T12:07:52;7.90;;;0.80;;
67544;SDS011;54380;47.770;11.150;2023-02-05T12:10:26;6.53;;;0.70;;
67544;SDS011;54380;47.770;11.150;2023-02-05T12:15:32;6.97;;;0.70;;
67544;SDS011;54380;47.770;11.150;2023-02-05T12:18:08;7.18;;;0.82;;
67544;SDS011;54380;47.770;11.150;2023-02-05T12:20:47;12.73;;;0.90;;
67544;SDS011;54380;47.770;11.150;2023-02-05T12:23:37;10.68;;;0.70;;
67544;SDS011;54380;47.770;11.150;2023-02-05T12:26:23;10.57;;;1.02;;
67544;SDS011;54380;47.770;11.150;2023-02-05T12:28:59;13.45;;;1.50;;
67544;SDS011;54380;47.770;11.150;2023-02-05T12:31:39;7.07;;;0.73;;
67544;SDS011;54380;47.770;11.150;2023-02-05T12:34:21;7.90;;;0.90;;
67544;SDS011;54380;47.770;11.150;2023-02-05T12:36:58;13.82;;;1.30;;
67544;SDS011;54380;47.770;11.150;2023-02-05T12:39:37;13.27;;;1.73;;
67544;SDS011;54380;47.770;11.150;2023-02-05T12:42:13;9.25;;;0.90;;
67544;SDS011;54380;47.770;11.150;2023-02-05T12:44:51;9.55;;;1.42;;
67544;SDS011;54380;47.770;11.150;2023-02-05T12:47:33;6.97;;;0.68;;
67544;SDS011;54380;47.770;11.150;2023-02-05T12:50:13;12.65;;;1.75;;
67544;SDS011;54380;47.770;11.150;2023-02-05T12:52:56;8.07;;;0.75;;
67544;SDS011;54380;47.770;11.150;2023-02-05T12:55:38;9.85;;;1.42;;
67544;SDS011;54380;47.770;11.150;2023-02-05T12:58:15;13.38;;;2.85;;
67544;SDS011;54380;47.770;11.150;2023-02-05T13:00:47;11.05;;;1.85;;
67544;SDS011;54380;47.770;11.150;2023-02-05T13:03:31;12.13;;;2.58;;
67544;SDS011;54380;47.770;11.150;2023-02-05T13:06:07;10.63;;;1.33;;
67544;SDS011;54380;47.770;11.150;2023-02-05T13:08:42;12.70;;;3.40;;
67544;SDS011;54380;47.770;11.150;2023-02-05T13:11:28;8.82;;;1.20;;
67544;SDS011;54380;47.770;11.150;2023-02-05T13:14:01;13.80;;;3.10;;
67544;SDS011;54380;47.770;11.150;2023-02-05T13:16:48;13.18;;;1.10;;
67544;SDS011;54380;47.770;11.150;2023-02-05T13:19:22;12.85;;;1.63;;
67544;SDS011;54380;47.770;11.150;2023-02-05T13:22:11;9.73;;;1.90;;
67544;SDS011;54380;47.770;11.150;2023-02-05T13:25:02;12.95;;;2.72;;
67544;SDS011;54380;47.770;11.150;2023-02-05T13:28:14;11.07;;;1.70;;
67544;SDS011;54380;47.770;11.150;2023-02-05T13:31:09;10.55;;;1.55;;
67544;SDS011;54380;47.770;11.150;2023-02-05T13:33:41;22.23;;;3.28;;
67544;SDS011;54380;47.770;11.150;2023-02-05T13:39:24;15.80;;;1.92;;
67544;SDS011;54380;47.770;11.150;2023-02-05T13:42:34;13.63;;;2.80;;
67544;SDS011;54380;47.770;11.150;2023-02-05T13:48:39;10.65;;;2.63;;
67544;SDS011;54380;47.770;11.150;2023-02-05T13:51:33;13.77;;;2.55;;
67544;SDS011;54380;47.770;11.150;2023-02-05T14:00:28;9.57;;;1.70;;
67544;SDS011;54380;47.770;11.150;2023-02-05T14:02:55;14.38;;;2.15;;
67544;SDS011;54380;47.770;11.150;2023-02-05T14:05:27;10.95;;;1.83;;
67544;SDS011;54380;47.770;11.150;2023-02-05T14:07:58;13.70;;;2.00;;
67544;SDS011;54380;47.770;11.150;2023-02-05T14:10:31;19.83;;;2.10;;
67544;SDS011;54380;47.770;11.150;2023-02-05T14:13:07;14.57;;;1.98;;
67544;SDS011;54380;47.770;11.150;2023-02-05T14:15:55;12.82;;;1.63;;
67544;SDS011;54380;47.770;11.150;2023-02-05T14:18:44;9.27;;;1.52;;
67544;SDS011;54380;47.770;11.150;2023-02-05T14:24:45;10.82;;;1.48;;
67544;SDS011;54380;47.770;11.150;2023-02-05T14:36:42;11.55;;;2.08;;
67544;SDS011;54380;47.770;11.150;2023-02-05T14:39:18;18.90;;;2.28;;
67544;SDS011;54380;47.770;11.150;2023-02-05T14:42:01;9.02;;;1.20;;
67544;SDS011;54380;47.770;11.150;2023-02-05T14:44:48;10.30;;;1.40;;
67544;SDS011;54380;47.770;11.150;2023-02-05T14:47:27;11.90;;;1.70;;
67544;SDS011;54380;47.770;11.150;2023-02-05T14:50:02;20.65;;;1.85;;
67544;SDS011;54380;47.770;11.150;2023-02-05T14:52:38;14.85;;;2.22;;
67544;SDS011;54380;47.770;11.150;2023-02-05T14:55:26;13.27;;;1.50;;
67544;SDS011;54380;47.770;11.150;2023-02-05T14:57:58;20.48;;;2.55;;
67544;SDS011;54380;47.770;11.150;2023-02-05T15:00:31;15.30;;;2.05;;
67544;SDS011;54380;47.770;11.150;2023-02-05T15:03:24;9.95;;;1.95;;
67544;SDS011;54380;47.770;11.150;2023-02-05T15:06:04;17.58;;;2.30;;
67544;SDS011;54380;47.770;11.150;2023-02-05T15:11:32;11.05;;;2.67;;
67544;SDS011;54380;47.770;11.150;2023-02-05T15:14:24;17.92;;;3.58;;
67544;SDS011;54380;47.770;11.150;2023-02-05T15:20:18;10.07;;;1.90;;
67544;SDS011;54380;47.770;11.150;2023-02-05T15:23:00;13.32;;;2.33;;
67544;SDS011;54380;47.770;11.150;2023-02-05T15:25:33;12.18;;;2.33;;
67544;SDS011;54380;47.770;11.150;2023-02-05T15:28:26;16.70;;;3.05;;
67544;SDS011;54380;47.770;11.150;2023-02-05T15:31:03;13.73;;;2.42;;
67544;SDS011;54380;47.770;11.150;2023-02-05T15:33:41;12.60;;;2.13;;
67544;SDS011;54380;47.770;11.150;2023-02-05T15:36:17;11.63;;;2.85;;
67544;SDS011;54380;47.770;11.150;2023-02-05T15:38:49;16.33;;;2.83;;